sensor_id;sensor_type;location;lat;lon;timestamp;P1;durP1;ratioP1;P2;durP2;ratioP2
70675;SDS011;59069;52.242;20.900;2022-12-05T00:00:27;17.97;;;8.53;;
70675;SDS011;59069;52.242;20.900;2022-12-05T00:02:53;23.27;;;8.60;;
70675;SDS011;59069;52.242;20.900;2022-12-05T00:05:18;20.60;;;9.07;;
70675;SDS011;59069;52.242;20.900;2022-12-05T00:07:45;21.38;;;8.68;;
70675;SDS011;59069;52.242;20.900;2022-12-05T00:10:10;22.73;;;9.63;;
70675;SDS011;59069;52.242;20.900;2022-12-05T00:12:36;22.10;;;8.40;;
70675;SDS011;59069;52.242;20.900;2022-12-05T00:15:01;22.67;;;9.13;;
70675;SDS011;59069;52.242;20.900;2022-12-05T00:17:27;22.80;;;8.90;;
70675;SDS011;59069;52.242;20.900;2022-12-05T00:19:52;21.17;;;9.57;;
70675;SDS011;59069;52.242;20.900;2022-12-05T00:22:17;19.47;;;8.73;;
70675;SDS011;59069;52.242;20.900;2022-12-05T00:24:43;20.60;;;8.47;;
70675;SDS011;59069;52.242;20.900;2022-12-05T00:27:08;20.13;;;8.07;;
70675;SDS011;59069;52.242;20.900;2022-12-05T00:29:33;20.03;;;9.00;;
70675;SDS011;59069;52.242;20.900;2022-12-05T00:31:59;19.50;;;9.20;;
70675;SDS011;59069;52.242;20.900;2022-12-05T00:34:24;21.87;;;9.80;;
70675;SDS011;59069;52.242;20.900;2022-12-05T00:36:50;21.37;;;9.33;;
70675;SDS011;59069;52.242;20.900;2022-12-05T00:39:15;20.98;;;9.38;;
70675;SDS011;59069;52.242;20.900;2022-12-05T00:41:41;21.13;;;9.43;;
70675;SDS011;59069;52.242;20.900;2022-12-05T00:44:07;21.92;;;9.15;;
70675;SDS011;59069;52.242;20.900;2022-12-05T00:46:35;22.73;;;8.40;;
70675;SDS011;59069;52.242;20.900;2022-12-05T00:49:01;21.50;;;9.20;;
70675;SDS011;59069;52.242;20.900;2022-12-05T00:51:37;24.65;;;10.10;;
70675;SDS011;59069;52.242;20.900;2022-12-05T00:54:08;20.85;;;9.73;;
70675;SDS011;59069;52.242;20.900;2022-12-05T00:56:36;21.38;;;9.55;;
70675;SDS011;59069;52.242;20.900;2022-12-05T00:59:02;22.63;;;9.33;;
70675;SDS011;59069;52.242;20.900;2022-12-05T01:01:33;19.45;;;8.65;;
70675;SDS011;59069;52.242;20.900;2022-12-05T01:04:02;22.20;;;9.30;;
70675;SDS011;59069;52.242;20.900;2022-12-05T01:06:30;22.58;;;9.55;;
70675;SDS011;59069;52.242;20.900;2022-12-05T01:08:56;20.70;;;9.00;;
70675;SDS011;59069;52.242;20.900;2022-12-05T01:11:23;23.00;;;9.60;;
70675;SDS011;59069;52.242;20.900;2022-12-05T01:13:49;21.63;;;9.23;;
70675;SDS011;59069;52.242;20.900;2022-12-05T01:16:18;21.47;;;8.53;;
70675;SDS011;59069;52.242;20.900;2022-12-05T01:19:06;21.77;;;8.68;;
70675;SDS011;59069;52.242;20.900;2022-12-05T01:21:35;21.00;;;8.75;;
70675;SDS011;59069;52.242;20.900;2022-12-05T01:24:00;19.83;;;8.60;;
70675;SDS011;59069;52.242;20.900;2022-12-05T01:26:26;22.17;;;9.18;;
70675;SDS011;59069;52.242;20.900;2022-12-05T01:28:51;23.63;;;9.20;;
70675;SDS011;59069;52.242;20.900;2022-12-05T01:31:20;24.17;;;9.67;;
70675;SDS011;59069;52.242;20.900;2022-12-05T01:33:48;22.63;;;9.13;;
70675;SDS011;59069;52.242;20.900;2022-12-05T01:36:15;22.50;;;9.73;;
70675;SDS011;59069;52.242;20.900;2022-12-05T01:38:41;23.92;;;9.70;;
70675;SDS011;59069;52.242;20.900;2022-12-05T01:41:10;21.77;;;8.68;;
70675;SDS011;59069;52.242;20.900;2022-12-05T01:46:24;24.27;;;9.27;;
70675;SDS011;59069;52.242;20.900;2022-12-05T01:48:51;22.45;;;9.20;;
70675;SDS011;59069;52.242;20.900;2022-12-05T01:51:19;22.08;;;8.90;;
70675;SDS011;59069;52.242;20.900;2022-12-05T01:53:45;23.30;;;9.30;;
70675;SDS011;59069;52.242;20.900;2022-12-05T01:56:10;23.67;;;9.67;;
70675;SDS011;59069;52.242;20.900;2022-12-05T01:58:37;22.48;;;9.18;;
70675;SDS011;59069;52.242;20.900;2022-12-05T02:01:06;21.50;;;9.20;;
70675;SDS011;59069;52.242;20.900;2022-12-05T02:03:31;22.23;;;8.67;;
70675;SDS011;59069;52.242;20.900;2022-12-05T02:05:57;20.42;;;8.90;;
70675;SDS011;59069;52.242;20.900;2022-12-05T02:08:23;22.53;;;8.47;;
70675;SDS011;59069;52.242;20.900;2022-12-05T02:10:52;21.17;;;9.55;;
70675;SDS011;59069;52.242;20.900;2022-12-05T02:30:23;23.77;;;9.13;;
70675;SDS011;59069;52.242;20.900;2022-12-05T02:32:51;20.92;;;9.10;;
70675;SDS011;59069;52.242;20.900;2022-12-05T02:35:29;20.73;;;8.73;;
70675;SDS011;59069;52.242;20.900;2022-12-05T02:40:49;22.75;;;9.27;;
70675;SDS011;59069;52.242;20.900;2022-12-05T02:46:20;29.88;;;10.25;;
70675;SDS011;59069;52.242;20.900;2022-12-05T02:48:47;19.13;;;8.73;;
70675;SDS011;59069;52.242;20.900;2022-12-05T02:51:16;20.42;;;8.18;;
70675;SDS011;59069;52.242;20.900;2022-12-05T02:53:45;20.10;;;8.38;;
70675;SDS011;59069;52.242;20.900;2022-12-05T02:56:14;18.73;;;8.40;;
70675;SDS011;59069;52.242;20.900;2022-12-05T02:58:50;23.83;;;9.07;;
70675;SDS011;59069;52.242;20.900;2022-12-05T03:01:18;24.05;;;9.63;;
70675;SDS011;59069;52.242;20.900;2022-12-05T03:03:45;21.40;;;8.98;;
70675;SDS011;59069;52.242;20.900;2022-12-05T03:06:12;19.85;;;8.60;;
70675;SDS011;59069;52.242;20.900;2022-12-05T03:08:46;21.80;;;8.45;;
70675;SDS011;59069;52.242;20.900;2022-12-05T03:11:22;20.13;;;8.27;;
70675;SDS011;59069;52.242;20.900;2022-12-05T03:13:50;17.80;;;8.10;;
70675;SDS011;59069;52.242;20.900;2022-12-05T03:16:40;19.95;;;8.07;;
70675;SDS011;59069;52.242;20.900;2022-12-05T03:19:14;19.75;;;9.27;;
70675;SDS011;59069;52.242;20.900;2022-12-05T03:24:15;20.05;;;8.00;;
70675;SDS011;59069;52.242;20.900;2022-12-05T03:26:54;17.60;;;8.20;;
70675;SDS011;59069;52.242;20.900;2022-12-05T03:29:30;18.37;;;8.00;;
70675;SDS011;59069;52.242;20.900;2022-12-05T03:32:02;19.33;;;8.35;;
70675;SDS011;59069;52.242;20.900;2022-12-05T03:37:01;18.80;;;8.00;;
70675;SDS011;59069;52.242;20.900;2022-12-05T03:39:32;17.77;;;8.05;;
70675;SDS011;59069;52.242;20.900;2022-12-05T03:42:07;18.13;;;7.80;;
70675;SDS011;59069;52.242;20.900;2022-12-05T03:44:53;16.92;;;7.47;;
70675;SDS011;59069;52.242;20.900;2022-12-05T03:50:10;18.40;;;7.35;;
70675;SDS011;59069;52.242;20.900;2022-12-05T03:52:44;18.25;;;8.15;;
70675;SDS011;59069;52.242;20.900;2022-12-05T03:55:13;21.07;;;7.80;;
70675;SDS011;59069;52.242;20.900;2022-12-05T03:57:47;21.30;;;9.07;;
70675;SDS011;59069;52.242;20.900;2022-12-05T04:00:18;15.55;;;7.25;;
70675;SDS011;59069;52.242;20.900;2022-12-05T04:07:48;19.80;;;8.30;;
70675;SDS011;59069;52.242;20.900;2022-12-05T04:10:18;20.10;;;8.85;;
70675;SDS011;59069;52.242;20.900;2022-12-05T04:12:47;19.17;;;8.57;;
70675;SDS011;59069;52.242;20.900;2022-12-05T04:15:18;19.60;;;8.25;;
70675;SDS011;59069;52.242;20.900;2022-12-05T04:17:54;18.27;;;8.20;;
70675;SDS011;59069;52.242;20.900;2022-12-05T04:23:23;19.38;;;8.40;;
70675;SDS011;59069;52.242;20.900;2022-12-05T04:25:53;19.55;;;8.23;;
70675;SDS011;59069;52.242;20.900;2022-12-05T04:31:10;17.98;;;8.15;;
70675;SDS011;59069;52.242;20.900;2022-12-05T04:33:45;18.53;;;8.30;;
70675;SDS011;59069;52.242;20.900;2022-12-05T04:36:20;17.27;;;8.00;;
70675;SDS011;59069;52.242;20.900;2022-12-05T04:41:37;18.88;;;8.40;;
70675;SDS011;59069;52.242;20.900;2022-12-05T04:44:06;18.30;;;8.05;;
70675;SDS011;59069;52.242;20.900;2022-12-05T04:46:35;20.00;;;7.93;;
70675;SDS011;59069;52.242;20.900;2022-12-05T04:49:05;18.15;;;8.20;;
70675;SDS011;59069;52.242;20.900;2022-12-05T04:51:33;19.63;;;8.23;;
70675;SDS011;59069;52.242;20.900;2022-12-05T04:54:01;18.33;;;8.35;;
70675;SDS011;59069;52.242;20.900;2022-12-05T04:56:33;19.40;;;8.68;;
70675;SDS011;59069;52.242;20.900;2022-12-05T04:59:02;20.33;;;8.03;;
70675;SDS011;59069;52.242;20.900;2022-12-05T05:01:33;19.33;;;8.40;;
70675;SDS011;59069;52.242;20.900;2022-12-05T05:04:06;17.75;;;8.38;;
70675;SDS011;59069;52.242;20.900;2022-12-05T05:06:37;18.70;;;8.63;;
70675;SDS011;59069;52.242;20.900;2022-12-05T05:09:03;21.13;;;9.13;;
70675;SDS011;59069;52.242;20.900;2022-12-05T05:11:30;16.20;;;6.93;;
70675;SDS011;59069;52.242;20.900;2022-12-05T05:13:58;17.70;;;7.55;;
70675;SDS011;59069;52.242;20.900;2022-12-05T05:16:25;19.55;;;7.68;;
70675;SDS011;59069;52.242;20.900;2022-12-05T05:18:52;18.27;;;8.00;;
70675;SDS011;59069;52.242;20.900;2022-12-05T05:21:40;17.88;;;8.18;;
70675;SDS011;59069;52.242;20.900;2022-12-05T05:24:06;16.17;;;7.43;;
70675;SDS011;59069;52.242;20.900;2022-12-05T05:26:35;20.65;;;7.63;;
70675;SDS011;59069;52.242;20.900;2022-12-05T05:29:02;17.75;;;7.10;;
70675;SDS011;59069;52.242;20.900;2022-12-05T05:31:28;17.75;;;7.63;;
70675;SDS011;59069;52.242;20.900;2022-12-05T05:33:54;18.23;;;7.53;;
70675;SDS011;59069;52.242;20.900;2022-12-05T05:36:21;17.42;;;7.57;;
70675;SDS011;59069;52.242;20.900;2022-12-05T05:38:51;16.52;;;7.07;;
70675;SDS011;59069;52.242;20.900;2022-12-05T05:41:24;16.90;;;7.60;;
70675;SDS011;59069;52.242;20.900;2022-12-05T05:43:52;16.13;;;7.10;;
70675;SDS011;59069;52.242;20.900;2022-12-05T05:46:19;16.20;;;7.75;;
70675;SDS011;59069;52.242;20.900;2022-12-05T05:48:46;15.50;;;7.32;;
70675;SDS011;59069;52.242;20.900;2022-12-05T05:51:13;17.80;;;7.63;;
70675;SDS011;59069;52.242;20.900;2022-12-05T05:53:39;17.93;;;6.90;;
70675;SDS011;59069;52.242;20.900;2022-12-05T05:56:07;17.00;;;6.57;;
70675;SDS011;59069;52.242;20.900;2022-12-05T05:58:34;18.17;;;7.38;;
70675;SDS011;59069;52.242;20.900;2022-12-05T06:01:03;16.63;;;7.10;;
70675;SDS011;59069;52.242;20.900;2022-12-05T06:03:30;16.80;;;6.85;;
70675;SDS011;59069;52.242;20.900;2022-12-05T06:05:59;17.40;;;7.07;;
70675;SDS011;59069;52.242;20.900;2022-12-05T06:08:30;18.17;;;7.43;;
70675;SDS011;59069;52.242;20.900;2022-12-05T06:10:56;18.83;;;7.50;;
70675;SDS011;59069;52.242;20.900;2022-12-05T06:13:22;18.90;;;7.20;;
70675;SDS011;59069;52.242;20.900;2022-12-05T06:15:47;16.40;;;6.57;;
70675;SDS011;59069;52.242;20.900;2022-12-05T06:18:12;17.23;;;7.23;;
70675;SDS011;59069;52.242;20.900;2022-12-05T06:20:38;16.40;;;7.10;;
70675;SDS011;59069;52.242;20.900;2022-12-05T06:23:03;17.38;;;7.07;;
70675;SDS011;59069;52.242;20.900;2022-12-05T06:25:29;18.63;;;7.77;;
70675;SDS011;59069;52.242;20.900;2022-12-05T06:27:54;17.80;;;8.23;;
70675;SDS011;59069;52.242;20.900;2022-12-05T06:30:19;17.70;;;7.20;;
70675;SDS011;59069;52.242;20.900;2022-12-05T06:32:45;19.27;;;7.93;;
70675;SDS011;59069;52.242;20.900;2022-12-05T06:35:10;16.35;;;7.07;;
70675;SDS011;59069;52.242;20.900;2022-12-05T06:37:42;16.50;;;7.53;;
70675;SDS011;59069;52.242;20.900;2022-12-05T06:40:09;19.77;;;7.80;;
70675;SDS011;59069;52.242;20.900;2022-12-05T06:42:39;18.17;;;7.13;;
70675;SDS011;59069;52.242;20.900;2022-12-05T06:45:05;18.63;;;7.83;;
70675;SDS011;59069;52.242;20.900;2022-12-05T06:47:31;18.75;;;7.88;;
70675;SDS011;59069;52.242;20.900;2022-12-05T06:49:56;16.73;;;7.40;;
70675;SDS011;59069;52.242;20.900;2022-12-05T06:52:21;21.17;;;7.73;;
70675;SDS011;59069;52.242;20.900;2022-12-05T06:54:47;18.33;;;7.77;;
70675;SDS011;59069;52.242;20.900;2022-12-05T06:57:12;17.27;;;7.57;;
70675;SDS011;59069;52.242;20.900;2022-12-05T06:59:38;17.88;;;7.53;;
70675;SDS011;59069;52.242;20.900;2022-12-05T07:02:05;20.53;;;8.60;;
70675;SDS011;59069;52.242;20.900;2022-12-05T07:04:32;20.38;;;7.63;;
70675;SDS011;59069;52.242;20.900;2022-12-05T07:06:58;18.48;;;7.70;;
70675;SDS011;59069;52.242;20.900;2022-12-05T07:09:26;16.65;;;7.63;;
70675;SDS011;59069;52.242;20.900;2022-12-05T07:12:13;17.47;;;7.17;;
70675;SDS011;59069;52.242;20.900;2022-12-05T07:14:40;20.15;;;8.38;;
70675;SDS011;59069;52.242;20.900;2022-12-05T07:17:05;19.80;;;7.78;;
70675;SDS011;59069;52.242;20.900;2022-12-05T07:19:31;18.43;;;8.33;;
70675;SDS011;59069;52.242;20.900;2022-12-05T07:21:56;19.17;;;7.83;;
70675;SDS011;59069;52.242;20.900;2022-12-05T07:24:22;19.90;;;7.85;;
70675;SDS011;59069;52.242;20.900;2022-12-05T07:26:47;17.33;;;7.50;;
70675;SDS011;59069;52.242;20.900;2022-12-05T07:29:12;16.80;;;7.53;;
70675;SDS011;59069;52.242;20.900;2022-12-05T07:31:38;20.00;;;8.30;;
70675;SDS011;59069;52.242;20.900;2022-12-05T07:34:03;20.57;;;8.23;;
70675;SDS011;59069;52.242;20.900;2022-12-05T07:36:29;17.65;;;7.60;;
70675;SDS011;59069;52.242;20.900;2022-12-05T07:38:55;18.63;;;8.80;;
70675;SDS011;59069;52.242;20.900;2022-12-05T07:41:22;20.20;;;8.98;;
70675;SDS011;59069;52.242;20.900;2022-12-05T07:43:54;19.37;;;7.97;;
70675;SDS011;59069;52.242;20.900;2022-12-05T07:46:20;20.10;;;8.07;;
70675;SDS011;59069;52.242;20.900;2022-12-05T07:48:46;18.25;;;7.50;;
70675;SDS011;59069;52.242;20.900;2022-12-05T07:51:12;18.33;;;7.65;;
70675;SDS011;59069;52.242;20.900;2022-12-05T07:53:38;18.67;;;7.20;;
70675;SDS011;59069;52.242;20.900;2022-12-05T07:56:06;16.58;;;7.68;;
70675;SDS011;59069;52.242;20.900;2022-12-05T07:58:33;21.00;;;8.05;;
70675;SDS011;59069;52.242;20.900;2022-12-05T08:01:09;18.43;;;7.17;;
70675;SDS011;59069;52.242;20.900;2022-12-05T08:03:37;17.42;;;7.32;;
70675;SDS011;59069;52.242;20.900;2022-12-05T08:06:24;17.85;;;8.15;;
70675;SDS011;59069;52.242;20.900;2022-12-05T08:08:50;18.90;;;7.20;;
70675;SDS011;59069;52.242;20.900;2022-12-05T08:11:22;19.83;;;8.30;;
70675;SDS011;59069;52.242;20.900;2022-12-05T08:13:54;20.75;;;7.80;;
70675;SDS011;59069;52.242;20.900;2022-12-05T08:16:21;21.35;;;8.70;;
70675;SDS011;59069;52.242;20.900;2022-12-05T08:18:48;21.20;;;8.25;;
70675;SDS011;59069;52.242;20.900;2022-12-05T08:21:18;19.77;;;7.93;;
70675;SDS011;59069;52.242;20.900;2022-12-05T08:23:44;17.55;;;7.07;;
70675;SDS011;59069;52.242;20.900;2022-12-05T08:26:14;17.60;;;7.63;;
70675;SDS011;59069;52.242;20.900;2022-12-05T08:28:46;19.67;;;8.18;;
70675;SDS011;59069;52.242;20.900;2022-12-05T08:31:16;19.13;;;7.72;;
70675;SDS011;59069;52.242;20.900;2022-12-05T08:33:43;18.98;;;7.57;;
70675;SDS011;59069;52.242;20.900;2022-12-05T08:36:10;19.60;;;7.73;;
70675;SDS011;59069;52.242;20.900;2022-12-05T08:38:37;19.52;;;8.02;;
70675;SDS011;59069;52.242;20.900;2022-12-05T08:41:07;19.57;;;8.10;;
70675;SDS011;59069;52.242;20.900;2022-12-05T08:43:34;20.35;;;7.93;;
70675;SDS011;59069;52.242;20.900;2022-12-05T08:46:00;19.67;;;8.17;;
70675;SDS011;59069;52.242;20.900;2022-12-05T08:48:26;18.23;;;6.95;;
70675;SDS011;59069;52.242;20.900;2022-12-05T08:50:53;16.80;;;7.75;;
70675;SDS011;59069;52.242;20.900;2022-12-05T08:53:18;18.27;;;7.53;;
70675;SDS011;59069;52.242;20.900;2022-12-05T08:55:44;21.52;;;8.38;;
70675;SDS011;59069;52.242;20.900;2022-12-05T08:58:12;22.10;;;7.83;;
70675;SDS011;59069;52.242;20.900;2022-12-05T09:00:38;17.88;;;7.60;;
70675;SDS011;59069;52.242;20.900;2022-12-05T09:03:04;20.50;;;7.78;;
70675;SDS011;59069;52.242;20.900;2022-12-05T09:05:29;22.47;;;8.37;;
70675;SDS011;59069;52.242;20.900;2022-12-05T09:07:55;18.10;;;7.40;;
70675;SDS011;59069;52.242;20.900;2022-12-05T09:10:20;20.02;;;8.05;;
70675;SDS011;59069;52.242;20.900;2022-12-05T09:12:46;20.13;;;8.43;;
70675;SDS011;59069;52.242;20.900;2022-12-05T09:15:12;19.37;;;8.23;;
70675;SDS011;59069;52.242;20.900;2022-12-05T09:17:37;23.07;;;9.17;;
70675;SDS011;59069;52.242;20.900;2022-12-05T09:20:04;19.90;;;8.43;;
70675;SDS011;59069;52.242;20.900;2022-12-05T09:22:30;18.23;;;7.70;;
70675;SDS011;59069;52.242;20.900;2022-12-05T09:24:57;19.40;;;8.30;;
70675;SDS011;59069;52.242;20.900;2022-12-05T09:27:24;20.83;;;7.53;;
70675;SDS011;59069;52.242;20.900;2022-12-05T09:29:50;18.13;;;7.80;;
70675;SDS011;59069;52.242;20.900;2022-12-05T09:32:15;20.80;;;7.88;;
70675;SDS011;59069;52.242;20.900;2022-12-05T09:34:40;22.57;;;9.37;;
70675;SDS011;59069;52.242;20.900;2022-12-05T09:37:06;20.03;;;8.57;;
70675;SDS011;59069;52.242;20.900;2022-12-05T09:39:32;19.25;;;8.40;;
70675;SDS011;59069;52.242;20.900;2022-12-05T09:42:11;22.08;;;8.75;;
70675;SDS011;59069;52.242;20.900;2022-12-05T09:47:47;21.15;;;8.80;;
70675;SDS011;59069;52.242;20.900;2022-12-05T09:50:23;20.15;;;8.20;;
70675;SDS011;59069;52.242;20.900;2022-12-05T09:58:37;24.10;;;8.57;;
70675;SDS011;59069;52.242;20.900;2022-12-05T10:20:39;20.00;;;8.48;;
70675;SDS011;59069;52.242;20.900;2022-12-05T10:23:11;19.23;;;7.88;;
70675;SDS011;59069;52.242;20.900;2022-12-05T10:25:44;21.40;;;9.00;;
70675;SDS011;59069;52.242;20.900;2022-12-05T10:31:16;23.63;;;8.38;;
70675;SDS011;59069;52.242;20.900;2022-12-05T10:33:46;23.42;;;9.23;;
70675;SDS011;59069;52.242;20.900;2022-12-05T10:36:20;21.60;;;9.13;;
70675;SDS011;59069;52.242;20.900;2022-12-05T10:38:45;23.50;;;8.50;;
70675;SDS011;59069;52.242;20.900;2022-12-05T10:41:11;23.90;;;9.07;;
70675;SDS011;59069;52.242;20.900;2022-12-05T10:43:39;26.48;;;8.85;;
70675;SDS011;59069;52.242;20.900;2022-12-05T10:46:06;22.83;;;8.37;;
70675;SDS011;59069;52.242;20.900;2022-12-05T10:48:34;22.00;;;8.45;;
70675;SDS011;59069;52.242;20.900;2022-12-05T10:51:03;24.25;;;9.25;;
70675;SDS011;59069;52.242;20.900;2022-12-05T10:53:43;23.88;;;9.02;;
70675;SDS011;59069;52.242;20.900;2022-12-05T10:59:06;24.40;;;8.73;;
70675;SDS011;59069;52.242;20.900;2022-12-05T11:01:34;26.85;;;9.85;;
70675;SDS011;59069;52.242;20.900;2022-12-05T11:04:06;24.77;;;9.65;;
70675;SDS011;59069;52.242;20.900;2022-12-05T11:06:34;23.17;;;9.15;;
70675;SDS011;59069;52.242;20.900;2022-12-05T11:12:15;24.20;;;8.45;;
70675;SDS011;59069;52.242;20.900;2022-12-05T11:15:04;22.63;;;9.18;;
70675;SDS011;59069;52.242;20.900;2022-12-05T11:20:00;22.92;;;9.65;;
70675;SDS011;59069;52.242;20.900;2022-12-05T11:22:29;23.63;;;9.52;;
70675;SDS011;59069;52.242;20.900;2022-12-05T11:24:56;24.00;;;9.18;;
70675;SDS011;59069;52.242;20.900;2022-12-05T11:27:26;27.93;;;9.53;;
70675;SDS011;59069;52.242;20.900;2022-12-05T11:29:56;24.45;;;8.68;;
70675;SDS011;59069;52.242;20.900;2022-12-05T11:32:31;25.92;;;10.20;;
70675;SDS011;59069;52.242;20.900;2022-12-05T11:46:02;28.63;;;9.82;;
70675;SDS011;59069;52.242;20.900;2022-12-05T11:56:32;27.23;;;10.30;;
70675;SDS011;59069;52.242;20.900;2022-12-05T12:15:33;27.10;;;9.63;;
70675;SDS011;59069;52.242;20.900;2022-12-05T12:20:55;24.77;;;9.30;;
70675;SDS011;59069;52.242;20.900;2022-12-05T12:26:24;31.67;;;11.38;;
70675;SDS011;59069;52.242;20.900;2022-12-05T12:34:37;26.70;;;10.47;;
70675;SDS011;59069;52.242;20.900;2022-12-05T12:37:33;28.27;;;10.88;;
70675;SDS011;59069;52.242;20.900;2022-12-05T12:40:26;26.38;;;10.57;;
70675;SDS011;59069;52.242;20.900;2022-12-05T12:45:55;29.55;;;10.48;;
70675;SDS011;59069;52.242;20.900;2022-12-05T12:48:33;25.53;;;10.97;;
70675;SDS011;59069;52.242;20.900;2022-12-05T12:51:21;28.33;;;11.40;;
70675;SDS011;59069;52.242;20.900;2022-12-05T12:59:50;27.35;;;10.13;;
70675;SDS011;59069;52.242;20.900;2022-12-05T13:02:42;29.42;;;10.88;;
70675;SDS011;59069;52.242;20.900;2022-12-05T13:08:31;30.47;;;11.37;;
70675;SDS011;59069;52.242;20.900;2022-12-05T13:11:09;28.75;;;9.95;;
70675;SDS011;59069;52.242;20.900;2022-12-05T13:13:48;32.30;;;11.50;;
70675;SDS011;59069;52.242;20.900;2022-12-05T13:16:30;30.80;;;11.07;;
70675;SDS011;59069;52.242;20.900;2022-12-05T13:18:59;29.15;;;10.88;;
70675;SDS011;59069;52.242;20.900;2022-12-05T13:21:26;31.20;;;11.37;;
70675;SDS011;59069;52.242;20.900;2022-12-05T13:23:54;32.33;;;11.25;;
70675;SDS011;59069;52.242;20.900;2022-12-05T13:26:23;30.58;;;12.25;;
70675;SDS011;59069;52.242;20.900;2022-12-05T13:28:50;30.55;;;10.45;;
70675;SDS011;59069;52.242;20.900;2022-12-05T13:31:19;29.20;;;10.23;;
70675;SDS011;59069;52.242;20.900;2022-12-05T13:34:04;32.70;;;11.57;;
70675;SDS011;59069;52.242;20.900;2022-12-05T13:36:37;33.45;;;11.70;;
70675;SDS011;59069;52.242;20.900;2022-12-05T13:39:34;23.67;;;9.23;;
70675;SDS011;59069;52.242;20.900;2022-12-05T13:42:19;33.60;;;10.48;;
70675;SDS011;59069;52.242;20.900;2022-12-05T13:52:31;32.57;;;11.33;;
70675;SDS011;59069;52.242;20.900;2022-12-05T13:57:52;35.20;;;11.68;;
70675;SDS011;59069;52.242;20.900;2022-12-05T14:00:20;32.85;;;11.90;;
70675;SDS011;59069;52.242;20.900;2022-12-05T14:02:49;26.58;;;11.13;;
70675;SDS011;59069;52.242;20.900;2022-12-05T14:07:50;32.90;;;11.10;;
70675;SDS011;59069;52.242;20.900;2022-12-05T14:12:59;35.95;;;10.65;;
70675;SDS011;59069;52.242;20.900;2022-12-05T14:15:28;30.20;;;10.85;;
70675;SDS011;59069;52.242;20.900;2022-12-05T14:23:36;29.63;;;10.80;;
70675;SDS011;59069;52.242;20.900;2022-12-05T14:28:53;32.45;;;11.38;;
70675;SDS011;59069;52.242;20.900;2022-12-05T14:44:46;29.57;;;11.20;;
70675;SDS011;59069;52.242;20.900;2022-12-05T14:47:16;27.55;;;10.95;;
70675;SDS011;59069;52.242;20.900;2022-12-05T14:52:23;31.80;;;10.82;;
70675;SDS011;59069;52.242;20.900;2022-12-05T14:54:51;28.83;;;10.77;;
70675;SDS011;59069;52.242;20.900;2022-12-05T14:57:19;35.10;;;12.17;;
70675;SDS011;59069;52.242;20.900;2022-12-05T14:59:48;31.27;;;12.63;;
70675;SDS011;59069;52.242;20.900;2022-12-05T15:02:19;34.63;;;11.93;;
70675;SDS011;59069;52.242;20.900;2022-12-05T15:04:57;34.85;;;12.73;;
70675;SDS011;59069;52.242;20.900;2022-12-05T15:07:28;29.67;;;11.95;;
70675;SDS011;59069;52.242;20.900;2022-12-05T15:10:05;29.73;;;10.40;;
70675;SDS011;59069;52.242;20.900;2022-12-05T15:12:40;38.95;;;11.02;;
70675;SDS011;59069;52.242;20.900;2022-12-05T15:20:47;32.80;;;11.15;;
70675;SDS011;59069;52.242;20.900;2022-12-05T15:26:04;32.75;;;11.52;;
70675;SDS011;59069;52.242;20.900;2022-12-05T15:28:36;32.35;;;11.45;;
70675;SDS011;59069;52.242;20.900;2022-12-05T15:31:01;32.23;;;11.93;;
70675;SDS011;59069;52.242;20.900;2022-12-05T15:33:27;29.10;;;12.50;;
70675;SDS011;59069;52.242;20.900;2022-12-05T15:35:53;29.45;;;11.90;;
70675;SDS011;59069;52.242;20.900;2022-12-05T15:38:22;31.07;;;12.20;;
70675;SDS011;59069;52.242;20.900;2022-12-05T15:40:53;32.17;;;11.27;;
70675;SDS011;59069;52.242;20.900;2022-12-05T15:43:25;31.97;;;12.37;;
70675;SDS011;59069;52.242;20.900;2022-12-05T15:46:08;31.13;;;11.52;;
70675;SDS011;59069;52.242;20.900;2022-12-05T15:48:47;31.90;;;12.32;;
70675;SDS011;59069;52.242;20.900;2022-12-05T15:51:13;30.00;;;11.73;;
70675;SDS011;59069;52.242;20.900;2022-12-05T15:53:46;29.67;;;12.23;;
70675;SDS011;59069;52.242;20.900;2022-12-05T15:59:09;32.57;;;12.93;;
70675;SDS011;59069;52.242;20.900;2022-12-05T16:01:42;31.75;;;11.65;;
70675;SDS011;59069;52.242;20.900;2022-12-05T16:04:19;29.50;;;11.82;;
70675;SDS011;59069;52.242;20.900;2022-12-05T16:06:52;32.55;;;12.40;;
70675;SDS011;59069;52.242;20.900;2022-12-05T16:09:20;32.78;;;12.55;;
70675;SDS011;59069;52.242;20.900;2022-12-05T16:11:54;34.03;;;12.47;;
70675;SDS011;59069;52.242;20.900;2022-12-05T16:14:22;35.28;;;12.38;;
70675;SDS011;59069;52.242;20.900;2022-12-05T16:16:49;31.92;;;12.38;;
70675;SDS011;59069;52.242;20.900;2022-12-05T16:19:23;29.52;;;11.63;;
70675;SDS011;59069;52.242;20.900;2022-12-05T16:22:06;32.55;;;11.48;;
70675;SDS011;59069;52.242;20.900;2022-12-05T16:24:34;31.30;;;12.47;;
70675;SDS011;59069;52.242;20.900;2022-12-05T16:27:22;35.50;;;12.38;;
70675;SDS011;59069;52.242;20.900;2022-12-05T16:32:35;35.75;;;12.63;;
70675;SDS011;59069;52.242;20.900;2022-12-05T16:35:00;32.13;;;11.93;;
70675;SDS011;59069;52.242;20.900;2022-12-05T16:37:27;32.25;;;11.82;;
70675;SDS011;59069;52.242;20.900;2022-12-05T16:39:53;30.83;;;12.17;;
70675;SDS011;59069;52.242;20.900;2022-12-05T16:42:26;36.08;;;12.95;;
70675;SDS011;59069;52.242;20.900;2022-12-05T16:44:54;34.25;;;12.40;;
70675;SDS011;59069;52.242;20.900;2022-12-05T16:48:12;27.65;;;11.52;;
70675;SDS011;59069;52.242;20.900;2022-12-05T16:50:33;35.28;;;12.77;;
70675;SDS011;59069;52.242;20.900;2022-12-05T16:55:35;32.05;;;12.55;;
70675;SDS011;59069;52.242;20.900;2022-12-05T16:58:02;34.03;;;11.82;;
70675;SDS011;59069;52.242;20.900;2022-12-05T17:00:28;33.70;;;11.68;;
70675;SDS011;59069;52.242;20.900;2022-12-05T17:02:57;30.65;;;12.10;;
70675;SDS011;59069;52.242;20.900;2022-12-05T17:05:22;33.60;;;13.00;;
70675;SDS011;59069;52.242;20.900;2022-12-05T17:07:48;33.00;;;12.45;;
70675;SDS011;59069;52.242;20.900;2022-12-05T17:10:14;40.07;;;13.00;;
70675;SDS011;59069;52.242;20.900;2022-12-05T17:12:40;32.92;;;12.52;;
70675;SDS011;59069;52.242;20.900;2022-12-05T17:15:15;35.17;;;13.10;;
70675;SDS011;59069;52.242;20.900;2022-12-05T17:17:42;33.00;;;12.60;;
70675;SDS011;59069;52.242;20.900;2022-12-05T17:20:07;35.85;;;13.18;;
70675;SDS011;59069;52.242;20.900;2022-12-05T17:22:33;37.90;;;13.57;;
70675;SDS011;59069;52.242;20.900;2022-12-05T17:24:58;31.77;;;12.45;;
70675;SDS011;59069;52.242;20.900;2022-12-05T17:27:24;30.63;;;11.80;;
70675;SDS011;59069;52.242;20.900;2022-12-05T17:29:50;31.52;;;12.95;;
70675;SDS011;59069;52.242;20.900;2022-12-05T17:32:16;31.90;;;12.70;;
70675;SDS011;59069;52.242;20.900;2022-12-05T17:34:41;31.48;;;12.88;;
70675;SDS011;59069;52.242;20.900;2022-12-05T17:37:06;30.20;;;12.13;;
70675;SDS011;59069;52.242;20.900;2022-12-05T17:39:32;35.23;;;13.63;;
70675;SDS011;59069;52.242;20.900;2022-12-05T17:41:57;30.43;;;12.50;;
70675;SDS011;59069;52.242;20.900;2022-12-05T17:44:22;28.87;;;12.30;;
70675;SDS011;59069;52.242;20.900;2022-12-05T17:46:48;32.97;;;13.37;;
70675;SDS011;59069;52.242;20.900;2022-12-05T17:49:14;29.80;;;11.93;;
70675;SDS011;59069;52.242;20.900;2022-12-05T17:51:41;33.22;;;12.88;;
70675;SDS011;59069;52.242;20.900;2022-12-05T17:54:07;35.90;;;12.77;;